Scroll for more >

River gauges, storages, and weirs in the Murray–Darling Basin

Type Locationsort descending River Water level Flow Volume Release Water temp Salinity Rainfall
River Gauge Albury (Union Bridge) Murray 1.98 m 24/11/2017 9:15 Not measured Not measured Not measured 14.9°C 24/11/2017 9:15 58.9 μS/cm 24/11/2017 9:15 Not measured Full data
River Gauge Balranald Murrumbidgee 1.45 m 24/11/2017 8:45 956 ML/Day 24/11/2017 8:45 Not measured Not measured 24.8°C 24/11/2017 8:45 117.4 μS/cm 24/11/2017 8:45 Not measured Full data
River Gauge Bandiana Kiewa 1.84 m 24/11/2017 8:45 1726 ML/Day 24/11/2017 8:45 Not measured Not measured 19.4°C 24/11/2017 8:45 158.2 μS/cm 24/11/2017 8:45 Not measured Full data
River Gauge Biggara Murray 0.49 m 24/11/2017 9:15 587 ML/Day 24/11/2017 9:15 Not measured Not measured 18.4°C 24/11/2017 9:15 48.2 μS/cm 24/11/2017 9:15 0.2 mm 24/11/2017 9:00 Full data
River Gauge Bringenbrong Bridge Murray 1.06 m 24/11/2017 9:15 1382 ML/Day 24/11/2017 9:15 Not measured Not measured Not measured Not measured Not measured Full data
River Gauge Burtundy Darling 0.86 m 24/11/2017 9:15 537 ML/Day 24/11/2017 9:15 Not measured Not measured 25.3°C 24/11/2017 9:15 752.6 μS/cm 24/11/2017 9:15 Not measured Full data
River Gauge Colemans Mitta 1.77 m 24/11/2017 10:00 2357 ML/Day 24/11/2017 10:00 Not measured Not measured 14.5°C 24/11/2017 8:45 44.0 μS/cm 24/11/2017 8:45 Not measured Full data
River Gauge Colignan Murray 3.05 m 24/11/2017 8:45 13861 ML/Day 24/11/2017 8:45 Not measured Not measured 24.9°C 24/11/2017 8:45 132.3 μS/cm 24/11/2017 8:45 Not measured Full data
River Gauge Corowa Murray 3 m 24/11/2017 9:15 14198 ML/Day 24/11/2017 9:15 Not measured Not measured 19.0°C 24/11/2017 9:15 54.0 μS/cm 24/11/2017 9:15 Not measured Full data
Storage Dartmouth Dam Mitta 478.22 m 24/11/2017 10:00 Not measured 3366 GL 24/11/2017 10:00 Not measured Not measured Not measured Not measured Full data
River Gauge Doctors Point Murray 2.98 m 24/11/2017 9:15 14939 ML/Day 24/11/2017 9:15 Not measured Not measured 14.4°C 24/11/2017 9:15 59.8 μS/cm 24/11/2017 9:15 Not measured Full data
River Gauge Echuca Wharf Murray 87.83 m 23/11/2017 7:45 Not measured Not measured Not measured Not measured Not measured Not measured Full data
River Gauge Edward Escape Wakool 0.07 m 24/11/2017 8:45 15 ML/Day 24/11/2017 8:45 Not measured Not measured 23.4°C 24/11/2017 8:45 32.0 μS/cm 24/11/2017 8:45 Not measured Full data
River Gauge Edward River Offtake Murray 2.24 m 24/11/2017 9:30 1346 ML/Day 24/11/2017 9:30 Not measured Not measured 24.2°C 24/11/2017 8:45 54.4 μS/cm 24/11/2017 8:45 Not measured Full data
Weirs Euston Weir Downstream Murray 44.22 m 24/11/2017 8:45 12467 ML/Day 24/11/2017 8:45 Not measured Not measured 24.1°C 24/11/2017 8:45 94.5 μS/cm 24/11/2017 8:45 Not measured Full data
Weirs Euston Weir Upstream Murray 47.71 m 24/11/2017 7:45 Not measured 39 GL 23/11/2017 7:45 Not measured Not measured Not measured 0.0 mm 22/11/2017 9:00 Full data
River Gauge Flow to South Australia Murray Not measured Not measured Not measured 10261.7 ML/d24/11/2017 7:45 Not measured Not measured Not measured Full data
River Gauge Frenchman Creek Murray 27.28 m 24/11/2017 7:45 Not measured Not measured 7306.4 ML/d24/11/2017 7:45 Not measured Not measured Not measured Full data
River Gauge Gulpa Creek Offtake Murray 2.8 m 24/11/2017 8:45 497 ML/Day 24/11/2017 8:45 Not measured Not measured Not measured Not measured Not measured Full data
River Gauge Hinnomunjie Mitta 0.76 m 24/11/2017 8:45 602 ML/Day 24/11/2017 8:45 Not measured Not measured 17.9°C 24/11/2017 8:45 49.7 μS/cm 24/11/2017 8:45 10.0 mm 24/11/2017 9:00 Full data
Storage Hume Dam Murray 188.28 m 24/11/2017 9:15 Not measured 2310 GL 24/11/2017 9:15 13000.0 ML/d24/11/2017 8:00 Not measured Not measured 0.0 mm 24/11/2017 9:00 Full data
River Gauge Jingellic Murray 1.55 m 24/11/2017 8:45 3388 ML/Day 24/11/2017 8:45 Not measured Not measured 19.7°C 24/11/2017 8:45 24.6 μS/cm 24/11/2017 8:45 1.6 mm 24/11/2017 9:00 Full data
River Gauge Kerang Loddon 0.47 m 24/11/2017 8:45 413 ML/Day 24/11/2017 8:45 Not measured Not measured 37.3°C 24/11/2017 8:45 194.6 μS/cm 24/11/2017 8:45 Not measured Full data
River Gauge Lake Albert Murray 0.81 m 24/11/2017 5:45 Not measured 282 GL 24/11/2017 5:45 Not measured Not measured Not measured Not measured Full data
River Gauge Lake Alexandrina Murray 0.81 m 24/11/2017 5:45 Not measured 1651 GL 24/11/2017 5:45 Not measured Not measured 715.5 μS/cm 24/11/2017 8:45 Not measured Full data
Storage Lake Victoria Murray 26.87 m 24/11/2017 7:45 Not measured 661 GL 24/11/2017 7:45 Not measured 20.1°C 24/11/2017 4:45 219.5 μS/cm 24/11/2017 4:45 Not measured Full data
Weirs Lock 1 Downstream Murray 0.9 m 24/11/2017 8:45 Not measured Not measured 8535.7 ML/d24/11/2017 7:45 Not measured Not measured Not measured Full data
Weirs Lock 1 Upstream Murray 3.15 m 24/11/2017 8:45 Not measured Not measured Not measured 23.7°C 24/11/2017 8:45 353.1 μS/cm 24/11/2017 8:45 Not measured Full data
Weirs Lock 2 Downstream Murray 3.54 m 24/11/2017 8:45 Not measured Not measured Not measured Not measured Not measured Not measured Full data
Weirs Lock 2 Upstream Murray 6.16 m 24/11/2017 8:45 Not measured Not measured Not measured 23.6°C 24/11/2017 8:45 319.2 μS/cm 24/11/2017 8:45 Not measured Full data
Weirs Lock 3 Downstream Murray 6.54 m 24/11/2017 8:45 Not measured Not measured Not measured Not measured Not measured Not measured Full data
Weirs Lock 3 Upstream Murray 9.85 m 24/11/2017 8:45 Not measured Not measured Not measured Not measured Not measured Not measured Full data
Weirs Lock 4 Downstream Murray 10.88 m 24/11/2017 8:45 Not measured Not measured Not measured Not measured Not measured Not measured Full data
Weirs Lock 4 Upstream Murray 13.28 m 24/11/2017 8:45 Not measured Not measured Not measured Not measured Not measured Not measured Full data
Weirs Lock 5 Downstream Murray 13.58 m 24/11/2017 8:45 Not measured Not measured Not measured Not measured Not measured Not measured Full data
Weirs Lock 5 Upstream Murray 16.31 m 24/11/2017 8:45 Not measured Not measured Not measured 24.3°C 24/11/2017 8:45 219.9 μS/cm 24/11/2017 8:45 Not measured Full data
Weirs Lock 6 Downstream Murray 16.57 m 24/11/2017 8:45 Not measured Not measured Not measured Not measured Not measured Not measured Full data
Weirs Lock 6 Upstream Murray 19.66 m 24/11/2017 8:45 Not measured Not measured Not measured 24.3°C 24/11/2017 8:45 193.6 μS/cm 24/11/2017 8:45 Not measured Full data
Weirs Lock 7 Downstream Murray 20.86 m 24/11/2017 3:45 Not measured Not measured Not measured Not measured Not measured Not measured Full data
Weirs Lock 7 Upstream Murray 22.63 m 24/11/2017 7:45 Not measured Not measured Not measured 24.1°C 24/11/2017 3:45 172.7 μS/cm 24/11/2017 3:45 Not measured Full data
Weirs Lock 8 Upstream Murray 24.93 m 24/11/2017 7:45 Not measured Not measured Not measured 24.9°C 23/11/2017 14:45 171.9 μS/cm 23/11/2017 14:45 Not measured Full data
Weirs Lock 9 Downstream Murray 25.05 m 24/11/2017 8:45 Not measured Not measured Not measured Not measured Not measured Not measured Full data
Weirs Lock 9 Upstream Murray 27.42 m 24/11/2017 8:45 Not measured Not measured Not measured 24.4°C 24/11/2017 8:45 144.6 μS/cm 24/11/2017 8:45 Not measured Full data
River Gauge McCoy Bridge Goulburn 3.26 m 24/11/2017 8:45 4373 ML/Day 24/11/2017 8:45 Not measured Not measured 23.5°C 24/11/2017 8:45 65.0 μS/cm 24/11/2017 8:45 Not measured Full data
Storage Menindee Lakes Darling Not measured Not measured 518 GL 23/11/2017 7:45 Not measured Not measured Not measured Not measured Full data
Weirs Mildura Weir downstream Murray 31.33 m 24/11/2017 8:45 Not measured Not measured Not measured 25.0°C 24/11/2017 8:45 99.2 μS/cm 24/11/2017 8:45 Not measured Full data
River Gauge Morgan Downstream Murray Not measured Not measured Not measured 7221.9 ML/d24/11/2017 8:45 Not measured 336.6 μS/cm 24/11/2017 6:45 Not measured Full data
River Gauge Mulwala Canal Murray Not measured Not measured Not measured 1927.7 ML/d23/11/2017 7:45 Not measured Not measured Not measured Full data
River Gauge Mundoo Barrage Murray 0.76 m 24/11/2017 7:45 Not measured Not measured Not measured Not measured Not measured Not measured Full data
River Gauge Murray Bridge Murray 0.78 m 24/11/2017 8:45 Not measured Not measured Not measured 21.3°C 24/11/2017 8:45 454.4 μS/cm 24/11/2017 8:45 Not measured Full data
River Gauge Peechelba Ovens 127.14 m 24/11/2017 8:45 1491 ML/Day 24/11/2017 8:45 Not measured Not measured 23.5°C 24/11/2017 8:45 56.5 μS/cm 24/11/2017 8:45 Not measured Full data
River Gauge Pinegrove Murray 1.18 m 24/11/2017 9:15 341 ML/Day 24/11/2017 9:15 Not measured Not measured 20.0°C 24/11/2017 9:15 84.9 μS/cm 24/11/2017 9:15 0.0 mm 24/11/2017 9:00 Full data
River Gauge Rochester Campaspe 3.25 m 24/11/2017 8:45 1468 ML/Day 24/11/2017 8:45 Not measured Not measured 24.0°C 24/11/2017 8:45 1639.8 μS/cm 24/11/2017 8:45 0.0 mm 24/11/2017 9:00 Full data
River Gauge Rufus River Murray 20.95 m 24/11/2017 7:45 Not measured Not measured 2018.8 ML/d24/11/2017 7:45 Not measured 220.7 μS/cm 23/11/2017 12:45 Not measured Full data
Weirs Steven's Weir Downstream Wakool 2.5 m 24/11/2017 8:45 2811 ML/Day 24/11/2017 8:45 Not measured Not measured 24.5°C 24/11/2017 8:45 64.6 μS/cm 24/11/2017 8:45 0.0 mm 22/11/2017 9:00 Full data
Weirs Steven's Weir Upstream Wakool 4.78 m 24/11/2017 9:30 Not measured Not measured Not measured Not measured Not measured Not measured Full data
River Gauge Stoney Crossing Murray 1.68 m 24/11/2017 8:45 1126 ML/Day 24/11/2017 8:45 Not measured 1102.4 ML/d24/11/2017 7:45 25.5°C 24/11/2017 8:45 136.6 μS/cm 24/11/2017 8:45 Not measured Full data
River Gauge Swan Hill Murray 1.94 m 24/11/2017 8:45 10530 ML/Day 24/11/2017 8:45 Not measured Not measured 24.6°C 24/11/2017 8:45 76.7 μS/cm 24/11/2017 8:45 Not measured Full data
River Gauge Tallandoon Mitta 2.21 m 24/11/2017 8:45 3216 ML/Day 24/11/2017 8:45 Not measured Not measured 15.9°C 24/11/2017 8:45 50.3 μS/cm 24/11/2017 8:45 Not measured Full data
River Gauge Tauwitchere Barrage Murray 0.82 m 24/11/2017 8:45 Not measured Not measured Not measured Not measured Not measured Not measured Full data
River Gauge Tocumwal Murray 2.83 m 24/11/2017 8:45 13685 ML/Day 24/11/2017 8:45 Not measured Not measured 24.2°C 24/11/2017 8:45 51.3 μS/cm 24/11/2017 8:45 Not measured Full data
River Gauge Torrumbarry Headworks Murray 84.74 m 24/11/2017 8:45 Not measured Not measured 1565.4 ML/d24/11/2017 9:00 Not measured Not measured Not measured Full data
Weirs Torrumbarry Weir Downstream Murray 3.79 m 24/11/2017 8:45 12486 ML/Day 24/11/2017 8:45 Not measured Not measured 24.5°C 24/11/2017 8:45 92.4 μS/cm 24/11/2017 8:45 Not measured Full data
Weirs Torrumbarry Weir Downstream Murray 3.79 m 24/11/2017 8:45 12486 ML/Day 24/11/2017 8:45 Not measured Not measured 24.5°C 24/11/2017 8:45 92.4 μS/cm 24/11/2017 8:45 Not measured Full data
Weirs Torrumbarry Weir Upstream Murray 86.05 m 24/11/2017 8:45 Not measured 37 GL 24/11/2017 7:45 Not measured 24.5°C 24/11/2017 7:45 91.0 μS/cm 24/11/2017 7:45 0.0 mm 23/11/2017 9:00 Full data
Weirs Torrumbarry Weir Upstream Murray 86.05 m 24/11/2017 8:45 Not measured 37 GL 24/11/2017 7:45 Not measured 24.5°C 24/11/2017 7:45 91.0 μS/cm 24/11/2017 7:45 0.0 mm 23/11/2017 9:00 Full data
River Gauge Wakool Canal Wakool 0.63 m 24/11/2017 8:45 Not measured Not measured 343.4 ML/d23/11/2017 8:45 Not measured Not measured Not measured Full data
River Gauge Wakool Junction Murray 4.14 m 24/11/2017 8:45 12870 ML/Day 24/11/2017 8:45 Not measured Not measured 24.5°C 24/11/2017 8:45 84.7 μS/cm 24/11/2017 8:45 Not measured Full data
River Gauge Weir 32 Upstream Darling 1.62 m 24/11/2017 8:45 733 ML/Day 24/11/2017 8:45 Not measured Not measured 24.0°C 24/11/2017 8:45 517.5 μS/cm 24/11/2017 8:45 Not measured Full data
Weirs Wentworth Weir Murray 28.12 m 24/11/2017 8:45 Not measured Not measured 14445.0 ML/d24/11/2017 7:45 Not measured 143.0 μS/cm 24/11/2017 7:45 0.0 mm 22/11/2017 9:00 Full data
River Gauge Wilcania Darling -0.05 m 24/11/2017 8:45 2 ML/Day 24/11/2017 8:45 Not measured Not measured 30.3°C 24/11/2017 8:45 0.0 μS/cm 24/11/2017 8:45 Not measured Full data
River Gauge Yarrawonga Main Channel Murray 123.8 m 24/11/2017 8:45 Not measured Not measured 1199.0 ML/d24/11/2017 7:45 Not measured Not measured Not measured Full data
Weirs Yarrawonga Weir Downstream Murray 2.09 m 24/11/2017 9:15 13075 ML/Day 24/11/2017 9:15 Not measured Not measured 23.3°C 24/11/2017 9:15 165.5 μS/cm 24/11/2017 9:15 Not measured Full data
Weirs Yarrawonga Weir Upstream Murray 124.77 m 24/11/2017 9:00 Not measured Not measured Not measured Not measured Not measured 0.0 mm 24/11/2017 9:00 Full data